createdAt,value
2019-01-05T00:06:23.840Z,8.83
2019-01-05T00:09:09.739Z,8.10
2019-01-05T00:14:29.466Z,8.67
2019-01-05T00:17:15.784Z,6.90
2019-01-05T00:23:02.607Z,7.43
2019-01-05T00:25:48.515Z,7.77
2019-01-05T00:31:12.103Z,9.10
2019-01-05T00:34:19.799Z,6.87
2019-01-05T00:42:57.047Z,6.97
2019-01-05T00:45:42.976Z,6.77
2019-01-05T00:51:06.653Z,5.90
2019-01-05T00:53:52.548Z,6.97
2019-01-05T00:56:38.486Z,6.10
2019-01-05T00:59:24.383Z,6.90
2019-01-05T01:07:21.944Z,6.10
2019-01-05T01:10:07.892Z,6.43
2019-01-05T01:12:53.788Z,5.33
2019-01-05T01:15:34.835Z,5.50
2019-01-05T01:21:08.181Z,5.33
2019-01-05T01:23:54.082Z,9.00
2019-01-05T01:26:40.004Z,6.33
2019-01-05T01:29:25.905Z,6.60
2019-01-05T01:32:11.851Z,6.20
2019-01-05T01:34:57.734Z,6.40
2019-01-05T01:38:23.404Z,6.37
2019-01-05T01:41:09.283Z,6.40
2019-01-05T01:43:55.224Z,8.07
2019-01-05T01:49:28.589Z,7.40
2019-01-05T01:52:14.471Z,6.90
2019-01-05T01:55:00.405Z,7.03
2019-01-05T02:00:41.604Z,8.67
2019-01-05T02:09:18.767Z,7.23
2019-01-05T02:24:33.773Z,7.70
2019-01-05T02:34:01.214Z,8.13
2019-01-05T02:43:10.707Z,7.20
2019-01-05T02:46:18.415Z,7.10
2019-01-05T02:49:44.584Z,6.70
2019-01-05T03:05:13.165Z,6.33
2019-01-05T03:11:39.351Z,5.37
2019-01-05T03:15:05.040Z,5.60
2019-01-05T03:18:12.718Z,5.37
2019-01-05T03:21:38.340Z,5.03
2019-01-05T03:25:04.022Z,5.00
2019-01-05T03:28:29.674Z,5.23
2019-01-05T03:31:55.361Z,5.40
2019-01-05T03:35:21.042Z,4.97
2019-01-05T03:38:01.646Z,5.10
2019-01-05T03:41:27.346Z,4.80
2019-01-05T03:44:52.982Z,4.27
2019-01-05T03:51:39.251Z,4.73
2019-01-05T03:55:04.889Z,4.60
2019-01-05T03:58:30.596Z,3.93
2019-01-05T04:01:56.269Z,3.97
2019-01-05T04:05:21.908Z,3.77
2019-01-05T04:08:47.526Z,3.30
2019-01-05T04:12:13.170Z,3.30
2019-01-05T04:15:38.818Z,3.53
2019-01-05T04:22:05.316Z,3.03
2019-01-05T04:25:30.998Z,3.17
2019-01-05T04:28:56.636Z,3.20
2019-01-05T04:32:04.320Z,3.03
2019-01-05T04:44:44.940Z,2.67
2019-01-05T04:54:11.616Z,2.50
2019-01-05T05:03:38.129Z,2.30
2019-01-05T05:07:03.769Z,2.33
2019-01-05T05:16:43.705Z,2.23
2019-01-05T05:19:51.386Z,2.47
2019-01-05T05:23:17.015Z,2.50
2019-01-05T05:26:24.731Z,2.63
2019-01-05T05:29:32.407Z,2.37
2019-01-05T05:32:58.022Z,2.80
2019-01-05T05:36:23.665Z,3.03
2019-01-05T05:39:49.258Z,3.63
2019-01-05T05:46:35.350Z,3.20
2019-01-05T05:49:43.094Z,3.00
2019-01-05T05:53:08.689Z,3.27
2019-01-05T05:56:34.497Z,3.40
2019-01-05T06:03:01.136Z,3.17
2019-01-05T06:15:10.809Z,2.63
2019-01-05T06:21:36.845Z,2.50
2019-01-05T06:28:02.992Z,2.40
2019-01-05T06:31:10.691Z,2.70
2019-01-05T06:34:36.327Z,2.00
2019-01-05T06:38:01.965Z,2.07
2019-01-05T06:41:27.620Z,1.80
2019-01-05T06:44:35.311Z,2.00
2019-01-05T06:57:03.140Z,1.67
2019-01-05T07:00:10.835Z,1.63
2019-01-05T07:12:58.832Z,1.50
2019-01-05T07:16:24.436Z,1.60
2019-01-05T07:19:50.086Z,1.27
2019-01-05T07:26:16.202Z,1.33
2019-01-05T07:29:41.838Z,1.33
2019-01-05T07:33:07.524Z,1.50
2019-01-05T07:36:33.215Z,1.80
2019-01-05T07:43:19.133Z,1.60
2019-01-05T07:46:44.821Z,1.57
2019-01-05T07:50:10.471Z,2.03
2019-01-05T07:56:48.311Z,1.37
2019-01-05T07:59:55.996Z,1.30
2019-01-05T08:03:21.674Z,1.20
2019-01-05T08:06:29.405Z,2.13
2019-01-05T08:09:55.051Z,4.23
2019-01-05T08:13:20.655Z,1.23
2019-01-05T08:20:02.840Z,1.70
2019-01-05T08:23:28.502Z,3.70
2019-01-05T08:26:54.107Z,2.80
2019-01-05T08:30:19.782Z,2.83
2019-01-05T08:33:45.434Z,2.30
2019-01-05T08:36:53.168Z,2.90
2019-01-05T08:40:00.848Z,3.37
2019-01-05T08:43:08.496Z,5.60
2019-01-05T08:46:16.178Z,2.40
2019-01-05T08:49:23.870Z,2.47
2019-01-05T08:58:50.623Z,2.93
2019-01-05T09:01:58.318Z,3.73
2019-01-05T09:05:23.957Z,3.53
2019-01-05T09:11:52.021Z,2.50
2019-01-05T09:18:31.323Z,3.90
2019-01-05T09:21:57.005Z,2.70
2019-01-05T09:31:06.231Z,3.23
2019-01-05T09:37:32.635Z,3.77
2019-01-05T09:56:41.092Z,2.17
2019-01-05T10:03:07.446Z,2.30
2019-01-05T10:06:15.162Z,2.33
2019-01-05T10:12:54.647Z,4.67
2019-01-05T10:16:20.332Z,2.97
2019-01-05T10:22:46.757Z,2.40
2019-01-05T10:32:13.065Z,1.63
2019-01-05T10:35:38.711Z,2.50
2019-01-05T10:38:46.359Z,3.33
2019-01-05T10:41:54.041Z,1.73
2019-01-05T10:51:16.433Z,3.03
2019-01-05T10:54:24.119Z,2.73
2019-01-05T11:00:50.286Z,2.77
2019-01-05T11:03:57.978Z,3.73
2019-01-05T11:07:23.578Z,5.17
2019-01-05T11:10:49.250Z,4.33
2019-01-05T11:20:27.300Z,1.97
2019-01-05T11:23:52.901Z,4.23
2019-01-05T11:27:00.586Z,4.00
2019-01-05T11:30:26.187Z,2.40
2019-01-05T11:33:33.884Z,3.00
2019-01-05T11:40:13.416Z,3.00
2019-01-05T11:43:39.111Z,2.97
2019-01-05T11:49:47.840Z,5.43
2019-01-05T11:53:13.537Z,5.07
2019-01-05T11:56:21.242Z,6.53
2019-01-05T11:59:46.916Z,4.07
2019-01-05T12:03:12.569Z,6.30
2019-01-05T12:09:38.715Z,3.43
2019-01-05T12:12:46.395Z,3.60
2019-01-05T12:21:55.591Z,3.40
2019-01-05T12:25:21.237Z,2.90
2019-01-05T12:28:46.848Z,4.17
2019-01-05T12:31:54.575Z,3.27
2019-01-05T12:35:21.285Z,3.13
2019-01-05T12:38:47.114Z,6.00
2019-01-05T12:45:13.871Z,6.13
2019-01-05T12:48:21.575Z,5.67
2019-01-05T12:54:47.778Z,4.40
2019-01-05T12:57:55.464Z,3.67
2019-01-05T13:10:36.279Z,3.47
2019-01-05T13:13:43.975Z,2.43
2019-01-05T13:17:09.575Z,3.47
2019-01-05T13:20:17.271Z,4.63
2019-01-05T13:23:42.933Z,5.13
2019-01-05T13:29:51.095Z,5.40
2019-01-05T13:45:16.407Z,3.30
2019-01-05T13:48:42.095Z,3.70
2019-01-05T13:52:07.758Z,5.77
2019-01-05T13:58:07.519Z,5.80
2019-01-05T14:00:53.411Z,4.10
2019-01-05T14:06:17.066Z,7.17
2019-01-05T14:09:03.009Z,6.00
2019-01-05T14:11:57.702Z,5.23
2019-01-05T14:14:43.593Z,4.63
2019-01-05T14:20:11.834Z,5.07
2019-01-05T14:22:55.239Z,5.73
2019-01-05T14:25:41.179Z,5.63
2019-01-05T14:28:27.100Z,4.77
2019-01-05T14:31:13.022Z,4.63
2019-01-05T14:33:58.953Z,5.90
2019-01-05T14:36:44.887Z,5.80
2019-01-05T14:39:30.820Z,6.00
2019-01-05T14:42:16.732Z,8.67
2019-01-05T14:45:02.650Z,7.10
2019-01-05T14:50:35.988Z,9.17
2019-01-05T14:53:21.915Z,8.07
2019-01-05T14:58:45.426Z,9.87
2019-01-05T15:04:09.234Z,8.80
2019-01-05T15:06:55.177Z,8.77
2019-01-05T15:09:41.068Z,9.43
2019-01-05T15:12:26.995Z,9.93
2019-01-05T15:15:12.925Z,9.30
2019-01-05T15:17:58.857Z,15.00
2019-01-05T15:21:04.593Z,11.27
2019-01-05T15:23:50.509Z,10.93
2019-01-05T15:26:36.417Z,11.93
2019-01-05T15:29:22.365Z,23.00
2019-01-05T15:34:42.250Z,11.23
2019-01-05T15:37:28.169Z,14.60
2019-01-05T15:40:14.078Z,16.60
2019-01-05T15:45:33.526Z,19.77
2019-01-05T15:48:19.438Z,18.07
2019-01-05T15:51:05.376Z,18.23
2019-01-05T15:59:16.532Z,11.80
2019-01-05T16:04:35.923Z,10.97
2019-01-05T16:07:21.867Z,12.90
2019-01-05T16:10:07.938Z,17.10
2019-01-05T16:12:53.894Z,13.60
2019-01-05T16:15:39.808Z,17.07
2019-01-05T16:18:25.716Z,17.83
2019-01-05T16:21:11.662Z,16.87
2019-01-05T16:23:57.597Z,17.27
2019-01-05T16:29:17.089Z,19.77
2019-01-05T16:34:50.451Z,12.07
2019-01-05T16:37:36.369Z,11.67
2019-01-05T16:43:22.738Z,15.33
2019-01-05T16:46:08.629Z,20.03
2019-01-05T16:48:54.779Z,20.87
2019-01-05T16:51:40.695Z,13.97
2019-01-05T16:54:26.609Z,24.30
2019-01-05T16:57:12.487Z,47.23
2019-01-05T16:59:58.445Z,68.00
2019-01-05T17:02:44.348Z,31.23
2019-01-05T17:05:30.285Z,22.10
2019-01-05T17:08:16.193Z,19.50
2019-01-05T17:18:47.253Z,22.83
2019-01-05T17:21:33.148Z,17.23
2019-01-05T17:24:19.116Z,20.60
2019-01-05T17:27:04.954Z,22.30
2019-01-05T17:29:50.886Z,21.43
2019-01-05T17:32:36.792Z,24.10
2019-01-05T17:35:22.834Z,16.43
2019-01-05T17:38:08.737Z,20.77
2019-01-05T17:40:54.696Z,13.87
2019-01-05T17:43:40.573Z,13.53
2019-01-05T17:46:26.506Z,16.53
2019-01-05T17:49:12.431Z,20.70
2019-01-05T17:51:58.358Z,17.50
2019-01-05T17:54:44.232Z,18.43
2019-01-05T17:57:30.168Z,18.03
2019-01-05T18:00:16.226Z,18.57
2019-01-05T18:05:49.643Z,18.70
2019-01-05T18:08:35.562Z,20.43
2019-01-05T18:11:21.486Z,14.27
2019-01-05T18:16:54.821Z,21.67
2019-01-05T18:19:40.733Z,18.37
2019-01-05T18:22:26.748Z,20.97
2019-01-05T18:25:12.694Z,21.10
2019-01-05T18:27:58.608Z,17.20
2019-01-05T18:30:44.485Z,21.20
2019-01-05T18:33:30.409Z,16.97
2019-01-05T18:36:16.501Z,16.67
2019-01-05T18:41:40.158Z,34.10
2019-01-05T18:47:13.517Z,34.73
2019-01-05T18:52:46.877Z,25.87
2019-01-05T18:55:32.818Z,19.77
2019-01-05T18:58:18.713Z,14.63
2019-01-05T19:03:43.761Z,24.87
2019-01-05T19:06:29.732Z,29.90
2019-01-05T19:09:15.694Z,23.43
2019-01-05T19:12:08.594Z,23.27
2019-01-05T19:14:49.504Z,22.73
2019-01-05T19:17:35.500Z,22.97
2019-01-05T19:20:21.577Z,23.50
2019-01-05T19:23:07.650Z,22.27
2019-01-05T19:25:53.570Z,23.33
2019-01-05T19:28:39.511Z,27.83
2019-01-05T19:31:32.892Z,29.73
2019-01-05T19:34:20.232Z,28.67
2019-01-05T19:39:40.621Z,27.07
2019-01-05T19:42:26.577Z,22.93
2019-01-05T19:50:37.657Z,29.33
2019-01-05T19:56:17.401Z,28.03
2019-01-05T19:59:23.168Z,22.80
2019-01-05T20:02:09.189Z,21.03
2019-01-05T20:07:28.909Z,23.37
2019-01-05T20:10:36.882Z,22.93
2019-01-05T20:13:22.895Z,22.93
2019-01-05T20:16:08.859Z,27.43
2019-01-05T20:18:54.743Z,23.13
2019-01-05T20:21:55.478Z,25.00
2019-01-05T20:29:51.062Z,21.93
2019-01-05T20:35:10.830Z,21.33
2019-01-05T20:37:57.629Z,24.17
2019-01-05T20:40:43.566Z,20.33
2019-01-05T20:43:29.543Z,26.50
2019-01-05T20:46:15.543Z,25.93
2019-01-05T20:49:10.665Z,24.80
2019-01-05T20:51:56.510Z,22.63
2019-01-05T20:54:42.513Z,30.33
2019-01-05T20:57:28.423Z,25.10
2019-01-05T21:05:39.957Z,21.83
2019-01-05T21:08:13.681Z,22.77
2019-01-05T21:11:21.379Z,19.07
2019-01-05T21:19:18.670Z,20.07
2019-01-05T21:22:24.863Z,19.67
2019-01-05T21:27:58.217Z,18.87
2019-01-05T21:30:44.126Z,16.80
2019-01-05T21:33:30.088Z,20.50
2019-01-05T21:36:15.994Z,21.03
2019-01-05T21:39:01.946Z,19.60
2019-01-05T21:44:25.927Z,19.40
2019-01-05T21:47:11.882Z,20.93
2019-01-05T21:49:57.815Z,13.60
2019-01-05T21:55:31.163Z,15.67
2019-01-05T21:58:17.066Z,18.17
2019-01-05T22:01:03.001Z,18.33
2019-01-05T22:03:48.914Z,19.77
2019-01-05T22:06:34.838Z,19.40
2019-01-05T22:09:20.754Z,19.60
2019-01-05T22:12:06.706Z,18.20
2019-01-05T22:14:52.600Z,16.67
2019-01-05T22:17:38.544Z,19.07
2019-01-05T22:23:11.875Z,17.47
2019-01-05T22:25:57.783Z,16.90
2019-01-05T22:28:43.726Z,24.03
2019-01-05T22:31:29.635Z,20.23
2019-01-05T22:34:15.562Z,18.07
2019-01-05T22:37:14.974Z,26.83
2019-01-05T22:40:02.332Z,20.23
2019-01-05T22:45:37.687Z,19.53
2019-01-05T22:48:23.631Z,22.33
2019-01-05T22:51:09.550Z,21.27
2019-01-05T22:53:55.447Z,20.37
2019-01-05T22:56:41.385Z,25.23
2019-01-05T22:59:27.288Z,21.63
2019-01-05T23:04:47.169Z,25.03
2019-01-05T23:07:33.073Z,18.87
2019-01-05T23:10:19.035Z,16.83
2019-01-05T23:13:04.937Z,20.97
2019-01-05T23:15:50.878Z,26.17
2019-01-05T23:18:36.784Z,25.87
2019-01-05T23:21:22.710Z,24.90
2019-01-05T23:24:08.625Z,22.37
2019-01-05T23:26:54.552Z,23.03
2019-01-05T23:29:40.446Z,21.53
2019-01-05T23:32:26.393Z,21.67
2019-01-05T23:35:12.273Z,22.93
2019-01-05T23:37:58.220Z,25.00
2019-01-05T23:40:44.113Z,27.60
2019-01-05T23:43:30.058Z,19.73
2019-01-05T23:46:15.918Z,18.20
2019-01-05T23:49:01.915Z,22.43
2019-01-05T23:57:09.158Z,20.37
2019-01-05T23:59:55.042Z,18.47
